createdAt,value
2023-04-18T09:26:30.945Z,26.39
2023-04-18T09:30:09.522Z,26.44
2023-04-18T09:33:31.117Z,25.72
2023-04-18T09:36:24.113Z,25.89
2023-04-18T09:45:39.853Z,29.11
2023-04-18T09:48:18.055Z,29.26
2023-04-18T09:51:04.235Z,29.85
2023-04-18T09:53:42.456Z,27.64
2023-04-18T09:56:28.564Z,27.19
2023-04-18T09:59:52.090Z,25.71
2023-04-18T10:02:29.534Z,24.41
2023-04-18T10:05:10.226Z,23.64
2023-04-18T10:11:43.914Z,22.33
2023-04-18T10:14:24.434Z,21.35
2023-04-18T10:17:00.463Z,22.70
2023-04-18T10:19:36.057Z,23.98
2023-04-18T10:26:12.534Z,25.48
2023-04-18T10:29:01.285Z,26.45
2023-04-18T10:31:53.292Z,29.17
2023-04-18T10:34:33.492Z,28.71
2023-04-18T10:37:06.628Z,28.26
2023-04-18T10:40:13.669Z,26.99
2023-04-18T10:42:52.011Z,26.66
2023-04-18T10:45:31.861Z,25.96
2023-04-18T10:48:30.381Z,25.51
2023-04-18T10:51:21.073Z,26.80
2023-04-18T10:54:00.613Z,29.16
2023-04-18T10:56:33.406Z,30.72
2023-04-18T10:59:06.375Z,30.15
2023-04-18T11:01:43.022Z,29.42
2023-04-18T11:04:17.573Z,27.42
2023-04-18T11:06:53.344Z,26.57
2023-04-18T11:09:26.560Z,26.82
2023-04-18T11:12:06.481Z,29.45
2023-04-18T11:14:48.398Z,30.92
2023-04-18T11:17:43.004Z,31.03
2023-04-18T11:20:15.625Z,28.43
2023-04-18T11:22:51.008Z,27.77
2023-04-18T11:25:32.217Z,27.64
2023-04-18T11:28:05.268Z,27.07
2023-04-18T11:30:42.679Z,25.53
2023-04-18T11:33:15.990Z,26.22
2023-04-18T11:35:48.312Z,27.02
2023-04-18T11:38:22.207Z,29.39
2023-04-18T11:40:55.578Z,30.28
2023-04-18T11:43:28.903Z,32.72
2023-04-18T11:46:01.986Z,33.33
2023-04-18T11:48:39.845Z,33.77
2023-04-18T11:51:40.479Z,35.78
2023-04-18T11:54:40.715Z,35.39
2023-04-18T11:57:32.301Z,32.98
2023-04-18T12:00:07.283Z,31.69
2023-04-18T12:02:45.941Z,29.28
2023-04-18T12:05:37.069Z,29.05
2023-04-18T12:08:19.339Z,29.17
2023-04-18T12:10:53.898Z,28.40
2023-04-18T12:13:35.756Z,27.75
2023-04-18T12:16:08.416Z,27.97
2023-04-18T12:18:42.316Z,29.54
2023-04-18T12:21:17.377Z,30.83
2023-04-18T12:23:49.997Z,31.46
2023-04-18T12:26:23.955Z,32.66
2023-04-18T12:28:56.445Z,31.16
2023-04-18T12:31:29.145Z,30.25
2023-04-18T12:34:01.620Z,31.56
2023-04-18T12:36:33.798Z,32.11
2023-04-18T12:39:06.255Z,32.19
2023-04-18T12:41:41.600Z,33.67
2023-04-18T12:44:14.080Z,33.43
2023-04-18T12:46:46.457Z,33.89
2023-04-18T12:49:18.636Z,34.31
2023-04-18T12:51:50.899Z,34.45
2023-04-18T12:54:23.201Z,33.15
2023-04-18T12:56:55.771Z,30.56
2023-04-18T12:59:31.808Z,29.87
2023-04-18T13:02:04.268Z,30.29
2023-04-18T13:04:36.744Z,31.63
2023-04-18T13:07:12.628Z,32.63
2023-04-18T13:09:48.618Z,33.36
2023-04-18T13:12:21.188Z,34.15
2023-04-18T13:14:53.467Z,34.05
2023-04-18T13:17:26.599Z,33.33
2023-04-18T13:20:06.399Z,33.73
2023-04-18T13:22:40.686Z,33.78
2023-04-18T13:25:13.509Z,35.40
2023-04-18T13:27:46.355Z,33.47
2023-04-18T13:30:24.396Z,31.66
2023-04-18T13:32:57.014Z,31.63
2023-04-18T13:35:32.757Z,33.34
2023-04-18T13:38:05.186Z,32.57
2023-04-18T13:40:39.059Z,33.16
2023-04-18T13:43:13.372Z,34.12
2023-04-18T13:45:45.667Z,33.55
2023-04-18T13:48:18.038Z,34.56
2023-04-18T13:50:51.363Z,34.96
2023-04-18T13:53:23.721Z,35.22
2023-04-18T13:55:56.125Z,36.30
2023-04-18T13:58:28.780Z,35.89
2023-04-18T14:01:01.186Z,35.91
2023-04-18T14:03:35.289Z,35.59
2023-04-18T14:06:08.544Z,35.32
2023-04-18T14:08:41.190Z,35.81
2023-04-18T14:11:13.723Z,36.60
2023-04-18T14:13:46.306Z,35.74
2023-04-18T14:16:19.495Z,35.30
2023-04-18T14:18:51.860Z,35.05
2023-04-18T14:21:24.824Z,34.54
2023-04-18T14:23:57.183Z,34.95
2023-04-18T14:26:29.813Z,35.02
2023-04-18T14:29:05.414Z,35.12
2023-04-18T14:31:37.825Z,35.85
2023-04-18T14:34:10.093Z,35.81
2023-04-18T14:36:42.260Z,35.43
2023-04-18T14:39:14.791Z,35.36
2023-04-18T14:41:47.305Z,36.14
2023-04-18T14:44:19.793Z,36.62
2023-04-18T14:46:52.174Z,37.34
2023-04-18T14:49:24.562Z,37.89
2023-04-18T14:51:57.213Z,36.67
2023-04-18T14:54:31.027Z,35.82
2023-04-18T14:57:08.864Z,35.69
2023-04-18T14:59:41.154Z,34.47
2023-04-18T15:02:16.712Z,34.53
2023-04-18T15:04:57.025Z,35.10
2023-04-18T15:07:32.422Z,36.10
2023-04-18T15:10:09.052Z,36.15
2023-04-18T15:12:42.918Z,35.90
2023-04-18T15:15:16.804Z,36.48
2023-04-18T15:17:49.082Z,36.40
2023-04-18T15:20:23.631Z,35.74
2023-04-18T15:22:57.540Z,36.61
2023-04-18T15:25:30.751Z,37.11
2023-04-18T15:28:03.225Z,36.46
2023-04-18T15:30:35.503Z,36.89
2023-04-18T15:33:08.354Z,36.95
2023-04-18T15:35:46.668Z,37.63
2023-04-18T15:38:19.340Z,38.59
2023-04-18T15:40:52.036Z,37.94
2023-04-18T15:43:24.485Z,38.44
2023-04-18T15:45:56.869Z,38.09
2023-04-18T15:48:30.476Z,38.30
2023-04-18T15:51:03.972Z,39.06
2023-04-18T15:53:36.540Z,39.78
2023-04-18T15:56:08.912Z,40.44
2023-04-18T15:58:41.156Z,40.71
2023-04-18T16:01:16.170Z,40.36
2023-04-18T16:03:49.148Z,41.26
2023-04-18T16:06:24.529Z,41.35
2023-04-18T16:08:57.158Z,42.40
2023-04-18T16:11:29.336Z,43.41
2023-04-18T16:14:01.429Z,42.89
2023-04-18T16:16:34.565Z,42.85
2023-04-18T16:19:06.722Z,43.66
2023-04-18T16:21:41.918Z,44.57
2023-04-18T16:24:16.580Z,45.41
2023-04-18T16:26:49.031Z,45.74
2023-04-18T16:29:21.419Z,44.75
2023-04-18T16:31:53.868Z,44.94
2023-04-18T16:34:26.408Z,45.86
2023-04-18T16:36:58.757Z,46.26
2023-04-18T16:39:31.331Z,46.82
2023-04-18T16:42:09.583Z,46.83
2023-04-18T16:44:41.847Z,47.44
2023-04-18T16:47:17.470Z,48.08
2023-04-18T16:49:51.552Z,48.04
2023-04-18T16:52:24.731Z,48.62
2023-04-18T16:54:59.392Z,50.23
2023-04-18T16:57:31.666Z,50.14
2023-04-18T17:00:05.277Z,50.35
2023-04-18T17:02:39.798Z,50.63
2023-04-18T17:05:13.644Z,49.80
2023-04-18T17:07:46.389Z,51.74
2023-04-18T17:10:21.738Z,50.93
2023-04-18T17:12:53.895Z,51.03
2023-04-18T17:15:27.833Z,51.47
2023-04-18T17:18:01.464Z,52.26
2023-04-18T17:20:33.782Z,53.18
2023-04-18T17:23:05.954Z,54.54
2023-04-18T17:25:38.254Z,54.34
2023-04-18T17:28:10.470Z,54.55
2023-04-18T17:30:42.950Z,54.46
2023-04-18T17:33:15.158Z,55.18
2023-04-18T17:35:50.514Z,54.97
2023-04-18T17:38:24.391Z,55.27
2023-04-18T17:41:00.359Z,56.03
2023-04-18T17:43:35.769Z,56.76
2023-04-18T17:46:08.296Z,56.86
2023-04-18T17:48:41.547Z,58.54
2023-04-18T17:51:16.603Z,57.67
2023-04-18T17:53:55.770Z,57.94
2023-04-18T17:56:51.895Z,57.58
2023-04-18T17:59:25.886Z,58.26
2023-04-18T18:02:01.259Z,57.98
2023-04-18T18:04:35.175Z,57.99
2023-04-18T18:07:50.796Z,58.35
2023-04-18T18:10:24.055Z,58.17
2023-04-18T18:12:56.741Z,58.60
2023-04-18T18:15:33.610Z,58.65
2023-04-18T18:18:10.395Z,58.74
2023-04-18T18:20:46.107Z,60.09
2023-04-18T18:24:01.725Z,60.59
2023-04-18T18:26:35.408Z,61.07
2023-04-18T18:29:11.370Z,61.23
2023-04-18T18:31:43.561Z,59.99
2023-04-18T18:34:15.995Z,61.21
2023-04-18T18:36:48.185Z,60.04
2023-04-18T18:39:26.179Z,60.32
2023-04-18T18:41:58.765Z,60.17
2023-04-18T18:44:31.164Z,60.67
2023-04-18T18:47:03.464Z,60.43
2023-04-18T18:49:36.435Z,60.75
2023-04-18T18:52:08.688Z,60.84
2023-04-18T18:54:40.926Z,61.35
2023-04-18T18:57:13.267Z,61.64
2023-04-18T18:59:45.490Z,62.20
2023-04-18T19:02:18.158Z,62.56
2023-04-18T19:04:50.922Z,60.97
2023-04-18T19:07:23.400Z,61.06
2023-04-18T19:09:55.798Z,61.31
2023-04-18T19:12:28.870Z,61.51
2023-04-18T19:15:01.972Z,61.67
2023-04-18T19:17:34.552Z,61.62
2023-04-18T19:20:11.357Z,62.96
2023-04-18T19:22:43.620Z,63.00
2023-04-18T19:25:15.829Z,62.83
2023-04-18T19:27:48.163Z,63.19
2023-04-18T19:30:20.601Z,62.89
2023-04-18T19:32:58.517Z,63.45
2023-04-18T19:35:31.032Z,64.10
2023-04-18T19:38:03.865Z,63.44
2023-04-18T19:40:36.215Z,64.06
2023-04-18T19:43:08.796Z,63.20
2023-04-18T19:45:41.319Z,63.40
2023-04-18T19:48:13.858Z,63.30
2023-04-18T19:50:46.905Z,63.67
2023-04-18T19:53:20.720Z,63.44
2023-04-18T20:02:40.365Z,65.46
2023-04-18T20:05:13.199Z,65.17
2023-04-18T20:07:45.736Z,66.04
2023-04-18T20:10:46.935Z,67.12
2023-04-18T20:13:22.146Z,66.76
2023-04-18T20:15:56.316Z,67.66
2023-04-18T20:18:30.703Z,67.24
2023-04-18T20:21:05.534Z,67.85
2023-04-18T20:23:42.342Z,67.50
2023-04-18T20:26:17.226Z,67.08
2023-04-18T20:28:49.470Z,67.85
2023-04-18T20:31:24.435Z,67.70
2023-04-18T20:33:56.771Z,67.92
2023-04-18T20:36:37.180Z,67.81
2023-04-18T20:39:09.578Z,68.45
2023-04-18T20:41:51.552Z,68.28
2023-04-18T20:44:25.086Z,68.38
2023-04-18T20:46:57.536Z,68.73
2023-04-18T20:49:30.178Z,68.58
2023-04-18T20:52:22.734Z,69.09
2023-04-18T20:54:54.953Z,69.09
2023-04-18T20:58:24.896Z,69.06
2023-04-18T21:01:01.305Z,68.96
2023-04-18T21:03:33.863Z,69.11
2023-04-18T21:06:06.264Z,69.32
2023-04-18T21:08:39.698Z,69.25
2023-04-18T21:11:12.622Z,69.29
2023-04-18T21:13:44.801Z,69.09
2023-04-18T21:16:17.224Z,69.57
2023-04-18T21:18:49.686Z,69.03
2023-04-18T21:21:21.989Z,69.68
2023-04-18T21:23:54.395Z,69.84
2023-04-18T21:26:26.897Z,70.14
2023-04-18T21:29:04.976Z,70.05
2023-04-18T21:31:37.482Z,70.05
2023-04-18T21:34:11.442Z,70.33
2023-04-18T21:36:43.928Z,69.58
2023-04-18T21:39:17.289Z,69.59
2023-04-18T21:41:49.738Z,68.82
2023-04-18T21:44:21.977Z,69.08
2023-04-18T21:46:54.407Z,69.12
2023-04-18T21:49:26.744Z,68.68
2023-04-18T21:51:59.367Z,68.35
2023-04-18T21:54:31.726Z,68.95
2023-04-18T21:57:06.118Z,67.22
2023-04-18T21:59:38.254Z,66.69
2023-04-18T22:02:10.517Z,66.44
2023-04-18T22:04:43.044Z,65.64
2023-04-18T22:07:19.110Z,65.94
2023-04-18T22:09:51.621Z,66.01
2023-04-18T22:12:24.725Z,65.64
2023-04-18T22:14:57.114Z,65.28
2023-04-18T22:17:30.232Z,65.46
2023-04-18T22:20:06.953Z,64.88
2023-04-18T22:22:43.468Z,64.55
2023-04-18T22:25:17.900Z,65.21
2023-04-18T22:27:52.473Z,64.63
2023-04-18T22:30:24.828Z,65.02
2023-04-18T22:32:58.575Z,63.06
2023-04-18T22:35:30.988Z,63.58
2023-04-18T22:38:03.382Z,62.69
2023-04-18T22:40:35.563Z,62.79
2023-04-18T22:43:08.015Z,62.29
2023-04-18T22:45:40.583Z,61.67
2023-04-18T22:48:13.792Z,60.83
2023-04-18T22:50:46.581Z,60.58
2023-04-18T22:53:18.790Z,60.44
2023-04-18T22:55:51.315Z,60.50
2023-04-18T22:58:23.651Z,59.45
2023-04-18T23:00:55.998Z,59.35
2023-04-18T23:03:28.281Z,58.63
2023-04-18T23:06:01.379Z,58.29
2023-04-18T23:08:33.551Z,58.02
2023-04-18T23:11:05.757Z,56.71
2023-04-18T23:13:37.903Z,56.96
2023-04-18T23:16:10.084Z,56.54
2023-04-18T23:18:42.203Z,55.77
2023-04-18T23:21:25.483Z,54.40
2023-04-18T23:23:57.619Z,54.51
2023-04-18T23:26:29.738Z,53.50
2023-04-18T23:29:01.862Z,52.89
2023-04-18T23:31:34.018Z,53.25
2023-04-18T23:34:06.137Z,52.37
2023-04-18T23:36:38.270Z,52.57
2023-04-18T23:39:10.395Z,51.32
2023-04-18T23:41:42.513Z,51.20
2023-04-18T23:44:14.851Z,50.66
2023-04-18T23:46:48.080Z,50.10
2023-04-18T23:49:20.208Z,49.23
2023-04-18T23:51:52.256Z,49.14
2023-04-18T23:54:24.349Z,48.97
2023-04-18T23:56:57.298Z,47.80
2023-04-18T23:59:29.424Z,48.11
